createdAt,value
2019-01-24T00:00:17.324Z,0.00
2019-01-24T00:01:49.142Z,0.00
2019-01-24T00:03:20.959Z,0.00
2019-01-24T00:04:52.876Z,0.00
2019-01-24T00:06:24.591Z,0.00
2019-01-24T00:07:56.407Z,0.00
2019-01-24T00:09:28.225Z,0.00
2019-01-24T00:11:00.041Z,0.00
2019-01-24T00:12:31.861Z,0.00
2019-01-24T00:14:03.679Z,0.00
2019-01-24T00:15:35.490Z,0.00
2019-01-24T00:17:07.407Z,0.00
2019-01-24T00:18:39.124Z,0.00
2019-01-24T00:20:10.938Z,0.00
2019-01-24T00:21:42.754Z,0.00
2019-01-24T00:23:14.671Z,0.00
2019-01-24T00:24:46.389Z,0.00
2019-01-24T00:26:18.205Z,0.00
2019-01-24T00:27:50.020Z,0.00
2019-01-24T00:29:21.836Z,0.00
2019-01-24T00:30:53.654Z,0.00
2019-01-24T00:32:25.471Z,0.00
2019-01-24T00:33:57.285Z,0.00
2019-01-24T00:35:29.203Z,0.00
2019-01-24T00:37:00.918Z,0.00
2019-01-24T00:38:32.735Z,0.00
2019-01-24T00:40:04.550Z,0.00
2019-01-24T00:41:36.468Z,0.00
2019-01-24T00:43:08.185Z,0.00
2019-01-24T00:44:39.997Z,0.00
2019-01-24T00:46:11.814Z,0.00
2019-01-24T00:47:43.629Z,0.00
2019-01-24T00:49:15.446Z,0.00
2019-01-24T00:50:47.290Z,0.00
2019-01-24T00:52:19.078Z,0.00
2019-01-24T00:53:50.894Z,0.00
2019-01-24T00:55:22.709Z,0.00
2019-01-24T00:56:54.526Z,0.00
2019-01-24T00:58:26.348Z,0.00
2019-01-24T00:59:58.407Z,0.00
2019-01-24T01:01:29.974Z,0.00
2019-01-24T01:04:33.648Z,0.00
2019-01-24T01:06:05.423Z,0.00
2019-01-24T01:07:37.250Z,0.00
2019-01-24T01:09:09.056Z,0.00
2019-01-24T01:10:40.873Z,0.00
2019-01-24T01:12:12.684Z,0.00
2019-01-24T01:13:44.500Z,0.00
2019-01-24T01:15:16.316Z,0.00
2019-01-24T01:16:48.133Z,0.00
2019-01-24T01:18:20.202Z,0.00
2019-01-24T01:19:51.764Z,0.00
2019-01-24T01:21:23.581Z,0.00
2019-01-24T01:22:55.435Z,0.00
2019-01-24T01:24:27.214Z,0.00
2019-01-24T01:25:59.026Z,0.00
2019-01-24T01:27:30.843Z,0.00
2019-01-24T01:29:02.659Z,0.00
2019-01-24T01:30:34.473Z,0.00
2019-01-24T01:32:06.294Z,0.00
2019-01-24T01:33:38.104Z,0.00
2019-01-24T01:35:09.921Z,0.00
2019-01-24T01:36:41.838Z,0.00
2019-01-24T01:38:13.552Z,0.00
2019-01-24T01:39:45.371Z,0.00
2019-01-24T01:41:17.183Z,0.00
2019-01-24T01:42:49.201Z,0.00
2019-01-24T01:44:20.816Z,0.00
2019-01-24T01:45:52.630Z,0.00
2019-01-24T01:47:24.447Z,0.00
2019-01-24T01:48:56.262Z,0.00
2019-01-24T01:50:28.089Z,0.00
2019-01-24T01:51:59.894Z,0.00
2019-01-24T01:53:31.709Z,0.00
2019-01-24T01:55:03.651Z,0.00
2019-01-24T01:56:35.345Z,0.00
2019-01-24T01:58:07.160Z,0.00
2019-01-24T01:59:38.972Z,0.00
2019-01-24T02:01:10.788Z,0.00
2019-01-24T02:02:42.604Z,0.00
2019-01-24T02:04:14.422Z,0.00
2019-01-24T02:05:46.235Z,0.00
2019-01-24T02:07:18.054Z,0.00
2019-01-24T02:08:49.867Z,0.00
2019-01-24T02:10:21.683Z,0.00
2019-01-24T02:11:53.498Z,0.00
2019-01-24T02:13:25.417Z,0.00
2019-01-24T02:14:57.130Z,0.00
2019-01-24T02:16:28.945Z,0.00
2019-01-24T02:18:00.761Z,0.00
2019-01-24T02:19:32.576Z,0.00
2019-01-24T02:21:04.391Z,0.00
2019-01-24T02:22:37.521Z,0.00
2019-01-24T02:24:08.023Z,0.00
2019-01-24T02:25:39.838Z,0.00
2019-01-24T02:27:11.654Z,0.00
2019-01-24T02:28:43.471Z,0.00
2019-01-24T02:30:15.288Z,0.00
2019-01-24T02:31:47.202Z,0.00
2019-01-24T02:33:18.916Z,0.00
2019-01-24T02:34:50.733Z,0.00
2019-01-24T02:36:22.548Z,0.00
2019-01-24T02:37:54.372Z,0.00
2019-01-24T02:39:26.180Z,0.00
2019-01-24T02:40:57.995Z,0.00
2019-01-24T02:42:29.811Z,0.00
2019-01-24T02:44:01.627Z,0.00
2019-01-24T02:45:33.445Z,0.00
2019-01-24T02:47:05.258Z,0.00
2019-01-24T02:48:37.073Z,0.00
2019-01-24T02:50:08.989Z,0.00
2019-01-24T02:51:40.729Z,0.00
2019-01-24T02:53:12.518Z,0.00
2019-01-24T02:54:44.336Z,0.00
2019-01-24T02:56:16.401Z,0.00
2019-01-24T02:57:47.965Z,0.00
2019-01-24T02:59:19.783Z,0.00
2019-01-24T03:00:51.597Z,0.00
2019-01-24T03:02:23.716Z,0.00
2019-01-24T03:03:55.228Z,0.00
2019-01-24T03:05:27.047Z,0.00
2019-01-24T03:06:58.861Z,0.00
2019-01-24T03:08:30.775Z,0.00
2019-01-24T03:10:02.492Z,0.00
2019-01-24T03:11:34.308Z,0.00
2019-01-24T03:13:06.123Z,0.00
2019-01-24T03:14:37.938Z,0.00
2019-01-24T03:16:09.758Z,0.00
2019-01-24T03:17:41.571Z,0.00
2019-01-24T03:19:13.386Z,0.00
2019-01-24T03:20:45.305Z,0.00
2019-01-24T03:22:17.021Z,0.00
2019-01-24T03:23:48.842Z,0.00
2019-01-24T03:25:20.653Z,0.00
2019-01-24T03:26:52.815Z,0.00
2019-01-24T03:28:24.281Z,0.00
2019-01-24T03:29:56.103Z,0.00
2019-01-24T03:31:27.913Z,0.00
2019-01-24T03:32:59.829Z,0.00
2019-01-24T03:34:31.547Z,0.00
2019-01-24T03:36:03.360Z,0.00
2019-01-24T03:37:35.175Z,0.00
2019-01-24T03:39:06.991Z,0.00
2019-01-24T03:40:38.806Z,0.00
2019-01-24T03:42:10.631Z,0.00
2019-01-24T03:43:42.437Z,0.00
2019-01-24T03:45:14.362Z,0.00
2019-01-24T03:46:46.067Z,0.00
2019-01-24T03:48:17.882Z,0.00
2019-01-24T03:49:49.699Z,0.00
2019-01-24T03:51:21.514Z,0.00
2019-01-24T03:52:53.330Z,0.00
2019-01-24T03:54:25.147Z,0.00
2019-01-24T03:55:56.963Z,0.00
2019-01-24T03:57:29.027Z,0.00
2019-01-24T03:59:00.592Z,0.00
2019-01-24T04:00:32.413Z,0.00
2019-01-24T04:02:04.230Z,0.00
2019-01-24T04:03:36.342Z,0.00
2019-01-24T04:05:12.040Z,0.00
2019-01-24T04:06:39.670Z,0.00
2019-01-24T04:08:11.485Z,0.00
2019-01-24T04:09:43.307Z,0.00
2019-01-24T04:11:15.119Z,0.00
2019-01-24T04:12:46.940Z,0.00
2019-01-24T04:14:18.752Z,0.00
2019-01-24T04:15:50.565Z,0.00
2019-01-24T04:17:22.381Z,0.00
2019-01-24T04:18:54.195Z,0.00
2019-01-24T04:20:26.011Z,0.00
2019-01-24T04:21:58.076Z,0.00
2019-01-24T04:23:29.642Z,0.00
2019-01-24T04:25:01.457Z,0.00
2019-01-24T04:26:33.273Z,0.00
2019-01-24T04:28:05.339Z,0.00
2019-01-24T04:29:36.903Z,0.00
2019-01-24T04:31:08.719Z,0.00
2019-01-24T04:32:40.535Z,0.00
2019-01-24T04:34:12.351Z,0.00
2019-01-24T04:35:44.171Z,0.00
2019-01-24T04:37:15.982Z,0.00
2019-01-24T04:38:48.105Z,0.00
2019-01-24T04:40:19.874Z,0.00
2019-01-24T04:41:51.428Z,0.00
2019-01-24T04:43:23.243Z,0.00
2019-01-24T04:44:55.060Z,0.00
2019-01-24T04:46:26.874Z,0.00
2019-01-24T04:47:58.689Z,0.00
2019-01-24T04:49:30.505Z,0.00
2019-01-24T04:51:02.321Z,0.00
2019-01-24T04:52:34.137Z,0.00
2019-01-24T04:54:05.952Z,0.00
2019-01-24T04:55:37.766Z,0.00
2019-01-24T04:57:09.581Z,0.00
2019-01-24T04:58:41.747Z,0.00
2019-01-24T05:00:13.212Z,0.00
2019-01-24T05:01:45.026Z,0.00
2019-01-24T05:03:16.843Z,0.00
2019-01-24T05:04:48.963Z,0.00
2019-01-24T05:06:20.473Z,0.00
2019-01-24T05:07:52.287Z,0.00
2019-01-24T05:09:24.104Z,0.00
2019-01-24T05:10:55.920Z,0.00
2019-01-24T05:12:27.734Z,0.00
2019-01-24T05:13:59.548Z,0.00
2019-01-24T05:15:31.368Z,0.00
2019-01-24T05:17:03.285Z,0.00
2019-01-24T05:18:34.995Z,0.00
2019-01-24T05:20:06.810Z,0.00
2019-01-24T05:21:38.624Z,0.00
2019-01-24T05:23:10.438Z,0.00
2019-01-24T05:24:42.255Z,0.00
2019-01-24T05:26:14.068Z,0.00
2019-01-24T05:27:45.884Z,0.00
2019-01-24T05:29:17.952Z,0.00
2019-01-24T05:30:49.513Z,0.00
2019-01-24T05:32:21.329Z,0.00
2019-01-24T05:33:53.143Z,0.00
2019-01-24T05:35:25.060Z,0.00
2019-01-24T05:36:56.776Z,0.00
2019-01-24T05:38:28.590Z,0.00
2019-01-24T05:40:00.410Z,0.00
2019-01-24T05:41:32.221Z,0.00
2019-01-24T05:43:04.036Z,0.00
2019-01-24T05:44:35.850Z,0.00
2019-01-24T05:46:07.665Z,0.00
2019-01-24T05:47:39.494Z,0.00
2019-01-24T05:49:11.294Z,0.00
2019-01-24T05:50:43.111Z,0.00
2019-01-24T05:52:19.446Z,0.00
2019-01-24T05:53:46.841Z,0.00
2019-01-24T05:55:18.561Z,0.00
2019-01-24T05:56:50.372Z,0.00
2019-01-24T05:58:22.186Z,0.00
2019-01-24T05:59:54.261Z,0.00
2019-01-24T06:01:25.816Z,0.00
2019-01-24T06:02:57.630Z,0.00
2019-01-24T06:04:29.445Z,0.00
2019-01-24T06:06:01.264Z,0.00
2019-01-24T06:07:33.075Z,0.00
2019-01-24T06:09:04.891Z,0.00
2019-01-24T06:10:36.705Z,0.00
2019-01-24T06:12:08.620Z,0.00
2019-01-24T06:13:40.335Z,0.00
2019-01-24T06:15:12.150Z,0.00
2019-01-24T06:16:43.965Z,0.00
2019-01-24T06:18:15.781Z,0.00
2019-01-24T06:19:47.595Z,0.00
2019-01-24T06:21:19.411Z,0.00
2019-01-24T06:22:51.225Z,0.00
2019-01-24T06:24:23.140Z,0.00
2019-01-24T06:25:54.862Z,0.00
2019-01-24T06:27:26.671Z,0.00
2019-01-24T06:28:58.489Z,0.00
2019-01-24T06:30:30.404Z,0.00
2019-01-24T06:32:02.117Z,0.00
2019-01-24T06:33:33.933Z,0.00
2019-01-24T06:35:05.746Z,0.00
2019-01-24T06:36:37.563Z,0.00
2019-01-24T06:38:09.376Z,0.00
2019-01-24T06:39:41.191Z,0.00
2019-01-24T06:41:13.008Z,0.00
2019-01-24T06:42:44.823Z,0.00
2019-01-24T06:44:16.637Z,0.00
2019-01-24T06:45:48.453Z,0.00
2019-01-24T06:47:20.268Z,0.00
2019-01-24T06:48:52.685Z,0.00
2019-01-24T06:50:23.899Z,0.00
2019-01-24T06:51:55.712Z,0.00
2019-01-24T06:53:27.528Z,0.00
2019-01-24T06:54:59.343Z,0.00
2019-01-24T06:56:31.160Z,0.00
2019-01-24T06:58:02.974Z,0.00
2019-01-24T06:59:34.791Z,0.00
2019-01-24T07:01:06.855Z,0.00
2019-01-24T07:02:38.458Z,0.00
2019-01-24T07:05:42.050Z,0.00
2019-01-24T07:07:13.965Z,0.00
2019-01-24T07:08:45.680Z,0.00
2019-01-24T07:10:17.495Z,0.00
2019-01-24T07:11:49.311Z,0.00
2019-01-24T07:13:21.132Z,0.00
2019-01-24T07:14:52.941Z,0.00
2019-01-24T07:16:24.757Z,0.00
2019-01-24T07:17:56.572Z,0.00
2019-01-24T07:19:28.386Z,0.00
2019-01-24T07:21:00.203Z,0.00
2019-01-24T07:22:32.017Z,0.00
2019-01-24T07:24:03.832Z,0.00
2019-01-24T07:25:35.751Z,0.00
2019-01-24T07:27:07.462Z,0.00
2019-01-24T07:28:39.276Z,0.00
2019-01-24T07:30:11.092Z,0.00
2019-01-24T07:31:42.906Z,0.00
2019-01-24T07:33:14.722Z,0.00
2019-01-24T07:34:46.537Z,0.00
2019-01-24T07:36:18.351Z,0.00
2019-01-24T07:39:21.981Z,0.00
2019-01-24T07:40:53.798Z,0.00
2019-01-24T07:42:25.613Z,0.00
2019-01-24T07:43:57.429Z,0.00
2019-01-24T07:45:29.342Z,0.00
2019-01-24T07:47:01.059Z,0.00
2019-01-24T07:48:32.873Z,0.00
2019-01-24T07:50:04.872Z,0.00
2019-01-24T07:51:36.504Z,0.00
2019-01-24T07:53:08.320Z,0.00
2019-01-24T07:54:40.134Z,0.00
2019-01-24T07:56:11.948Z,0.00
2019-01-24T07:57:44.089Z,0.00
2019-01-24T07:59:15.579Z,0.00
2019-01-24T08:00:47.394Z,0.00
2019-01-24T08:02:19.209Z,0.00
2019-01-24T08:03:51.123Z,0.00
2019-01-24T08:05:22.839Z,0.00
2019-01-24T08:06:55.714Z,0.00
2019-01-24T08:08:26.468Z,0.00
2019-01-24T08:09:59.089Z,0.00
2019-01-24T08:11:30.101Z,0.00
2019-01-24T08:13:01.916Z,4.00
2019-01-24T08:14:33.883Z,0.00
2019-01-24T08:16:05.544Z,4.00
2019-01-24T08:17:37.358Z,4.00
2019-01-24T08:19:09.173Z,8.00
2019-01-24T08:20:40.988Z,8.00
2019-01-24T08:22:12.902Z,12.00
2019-01-24T08:23:44.623Z,20.00
2019-01-24T08:25:16.432Z,28.00
2019-01-24T08:26:48.259Z,40.00
2019-01-24T08:28:20.060Z,56.00
2019-01-24T08:29:51.876Z,76.00
2019-01-24T08:31:23.690Z,104.00
2019-01-24T08:32:55.505Z,152.00
2019-01-24T08:34:27.319Z,208.00
2019-01-24T08:35:59.133Z,272.00
2019-01-24T08:37:30.982Z,336.00
2019-01-24T08:39:02.803Z,392.00
2019-01-24T08:40:34.684Z,452.00
2019-01-24T08:42:06.420Z,512.00
2019-01-24T08:43:39.100Z,568.00
2019-01-24T08:45:10.158Z,640.00
2019-01-24T08:46:42.118Z,728.00
2019-01-24T08:48:13.699Z,844.00
2019-01-24T08:49:45.640Z,980.00
2019-01-24T08:51:17.284Z,1148.00
2019-01-24T08:52:49.499Z,1332.00
2019-01-24T08:54:20.915Z,1528.00
2019-01-24T08:55:52.841Z,1732.00
2019-01-24T08:57:24.996Z,1956.00
2019-01-24T08:58:56.480Z,2192.00
2019-01-24T09:00:28.226Z,2392.00
2019-01-24T09:02:00.302Z,2564.00
2019-01-24T09:03:33.259Z,2728.00
2019-01-24T09:05:03.741Z,2844.00
2019-01-24T09:06:35.436Z,2936.00
2019-01-24T09:08:08.763Z,3024.00
2019-01-24T09:11:11.927Z,3316.00
2019-01-24T09:12:43.054Z,3508.00
2019-01-24T09:14:14.674Z,3720.00
2019-01-24T09:15:46.612Z,3884.00
2019-01-24T09:17:19.266Z,4060.00
2019-01-24T09:18:50.481Z,4244.00
2019-01-24T09:20:22.187Z,4464.00
2019-01-24T09:21:53.600Z,4724.00
2019-01-24T09:23:25.443Z,4996.00
2019-01-24T09:24:57.411Z,5308.00
2019-01-24T09:26:31.637Z,5700.00
2019-01-24T09:28:01.375Z,6268.00
2019-01-24T09:29:33.356Z,7328.00
2019-01-24T09:31:04.777Z,7772.00
2019-01-24T09:32:37.445Z,8108.00
2019-01-24T09:34:08.842Z,8368.00
2019-01-24T09:35:40.099Z,8640.00
2019-01-24T09:37:12.673Z,9108.00
2019-01-24T09:38:43.835Z,9320.00
2019-01-24T09:40:15.602Z,9684.00
2019-01-24T09:41:47.679Z,9812.00
2019-01-24T09:44:51.082Z,9528.00
2019-01-24T09:46:22.764Z,9592.00
2019-01-24T09:47:55.430Z,10140.00
2019-01-24T09:49:27.434Z,11540.00
2019-01-24T09:50:58.244Z,12580.00
2019-01-24T09:52:29.971Z,13012.00
2019-01-24T09:54:03.571Z,13372.00
2019-01-24T09:55:33.849Z,13628.00
2019-01-24T09:57:05.501Z,13840.00
2019-01-24T09:58:37.733Z,14044.00
2019-01-24T10:00:09.139Z,13952.00
2019-01-24T10:01:41.092Z,13928.00
2019-01-24T10:03:12.963Z,13748.00
2019-01-24T10:04:44.845Z,13536.00
2019-01-24T10:06:17.083Z,13316.00
2019-01-24T10:07:48.826Z,13352.00
2019-01-24T10:09:20.058Z,13200.00
2019-01-24T10:10:53.048Z,12964.00
2019-01-24T10:13:57.541Z,12716.00
2019-01-24T10:15:27.425Z,12576.00
2019-01-24T10:16:59.863Z,12488.00
2019-01-24T10:18:32.614Z,12480.00
2019-01-24T10:20:02.991Z,12548.00
2019-01-24T10:21:34.664Z,12704.00
2019-01-24T10:23:08.916Z,12680.00
2019-01-24T10:24:41.013Z,12504.00
2019-01-24T10:26:11.250Z,12568.00
2019-01-24T10:27:42.250Z,12788.00
2019-01-24T10:29:15.540Z,12736.00
2019-01-24T10:30:45.856Z,12476.00
2019-01-24T10:32:18.411Z,11692.00
2019-01-24T10:33:49.288Z,11828.00
2019-01-24T10:35:22.162Z,11752.00
2019-01-24T10:36:53.708Z,11596.00
2019-01-24T10:38:26.944Z,12160.00
2019-01-24T10:39:57.000Z,12136.00
2019-01-24T10:41:28.592Z,12524.00
2019-01-24T10:43:00.754Z,12804.00
2019-01-24T10:44:32.640Z,13548.00
2019-01-24T10:46:05.722Z,13932.00
2019-01-24T10:47:37.807Z,14352.00
2019-01-24T10:49:10.038Z,14352.00
2019-01-24T10:50:41.032Z,14188.00
2019-01-24T10:52:11.341Z,14608.00
2019-01-24T10:53:43.266Z,14928.00
2019-01-24T10:55:14.954Z,15028.00
2019-01-24T10:56:46.868Z,14392.00
2019-01-24T10:58:19.482Z,12556.00
2019-01-24T10:59:51.789Z,15084.00
2019-01-24T11:02:53.872Z,16684.00
2019-01-24T11:04:25.921Z,19104.00
2019-01-24T11:05:57.969Z,20608.00
2019-01-24T11:07:29.423Z,17696.00
2019-01-24T11:10:33.703Z,16268.00
2019-01-24T11:12:06.054Z,16352.00
2019-01-24T11:13:37.898Z,15592.00
2019-01-24T11:15:08.924Z,14744.00
2019-01-24T11:16:40.512Z,14100.00
2019-01-24T11:19:44.324Z,15740.00
2019-01-24T11:22:48.339Z,16436.00
2019-01-24T11:24:19.469Z,15120.00
2019-01-24T11:25:52.598Z,12256.00
2019-01-24T11:30:26.727Z,11548.00
2019-01-24T11:33:30.273Z,12464.00
2019-01-24T11:35:02.099Z,14680.00
2019-01-24T11:36:33.918Z,19136.00
2019-01-24T11:38:07.177Z,21376.00
2019-01-24T11:39:38.124Z,21856.00
2019-01-24T11:41:09.387Z,19616.00
2019-01-24T11:42:41.219Z,18624.00
2019-01-24T11:44:13.540Z,18304.00
2019-01-24T11:45:44.859Z,18272.00
2019-01-24T11:47:16.683Z,17816.00
2019-01-24T11:48:49.165Z,17852.00
2019-01-24T11:50:20.539Z,16540.00
2019-01-24T11:51:52.158Z,16476.00
2019-01-24T11:53:24.188Z,18240.00
2019-01-24T11:56:27.936Z,19872.00
2019-01-24T11:57:59.459Z,21248.00
2019-01-24T11:59:31.288Z,18848.00
2019-01-24T12:02:39.676Z,21408.00
2019-01-24T12:04:06.765Z,21440.00
2019-01-24T12:05:38.793Z,20896.00
2019-01-24T12:07:10.617Z,24256.00
2019-01-24T12:10:14.369Z,21504.00
2019-01-24T12:13:17.719Z,27520.00
2019-01-24T12:16:21.903Z,26240.00
2019-01-24T12:17:53.704Z,28704.00
2019-01-24T12:19:25.056Z,33920.00
2019-01-24T12:22:28.878Z,32128.00
2019-01-24T12:24:00.649Z,32736.00
2019-01-24T12:27:04.231Z,32768.00
2019-01-24T12:28:36.278Z,31840.00
2019-01-24T12:30:07.802Z,30848.00
2019-01-24T12:31:39.626Z,30816.00
2019-01-24T12:33:11.487Z,36608.00
2019-01-24T12:34:43.279Z,40544.00
2019-01-24T12:37:47.440Z,45344.00
2019-01-24T12:39:18.761Z,33184.00
2019-01-24T12:40:50.892Z,37376.00
2019-01-24T12:42:23.173Z,37792.00
2019-01-24T12:43:54.478Z,40096.00
2019-01-24T12:45:26.071Z,33728.00
2019-01-24T12:46:58.000Z,32704.00
2019-01-24T12:48:29.727Z,32928.00
2019-01-24T12:50:01.584Z,35392.00
2019-01-24T12:51:33.381Z,34464.00
2019-01-24T12:53:05.513Z,36032.00
2019-01-24T12:54:37.236Z,33312.00
2019-01-24T12:56:08.859Z,34432.00
2019-01-24T12:57:40.684Z,41056.00
2019-01-24T13:02:16.263Z,53088.00
2019-01-24T13:03:48.593Z,38944.00
2019-01-24T13:05:19.816Z,55552.00
2019-01-24T13:06:51.640Z,37248.00
2019-01-24T13:08:23.492Z,35840.00
2019-01-24T13:11:27.706Z,33632.00
2019-01-24T13:14:30.975Z,60320.00
2019-01-24T13:16:03.135Z,67776.00
2019-01-24T13:17:34.430Z,59584.00
2019-01-24T13:20:38.504Z,39872.00
2019-01-24T13:22:09.917Z,37888.00
2019-01-24T13:23:41.744Z,35456.00
2019-01-24T13:25:13.574Z,38912.00
2019-01-24T13:26:45.603Z,65248.00
2019-01-24T13:28:17.234Z,41248.00
2019-01-24T13:31:20.888Z,39776.00
2019-01-24T13:32:53.022Z,39456.00
2019-01-24T13:37:28.196Z,42176.00
2019-01-24T13:39:00.121Z,41216.00
2019-01-24T13:40:31.846Z,43360.00
2019-01-24T13:43:35.804Z,58560.00
2019-01-24T13:45:08.239Z,37312.00
2019-01-24T13:46:40.605Z,42368.00
2019-01-24T13:49:42.806Z,30304.00
2019-01-24T13:51:14.644Z,41952.00
2019-01-24T13:54:19.348Z,72192.00
2019-01-24T13:55:51.075Z,77920.00
2019-01-24T13:57:22.571Z,88064.00
2019-01-24T13:58:54.774Z,73664.00
2019-01-24T14:00:27.577Z,82592.00
2019-01-24T14:03:29.313Z,69504.00
2019-01-24T14:05:01.772Z,87456.00
2019-01-24T14:08:05.398Z,56672.00
2019-01-24T14:09:36.837Z,61504.00
2019-01-24T14:11:08.576Z,78720.00
2019-01-24T14:12:40.709Z,86816.00
2019-01-24T14:14:13.156Z,89792.00
2019-01-24T14:15:44.220Z,89728.00
2019-01-24T14:17:16.410Z,89888.00
2019-01-24T14:18:48.581Z,85472.00
2019-01-24T14:20:19.732Z,46688.00
2019-01-24T14:21:51.919Z,68640.00
2019-01-24T14:23:23.270Z,72064.00
2019-01-24T14:24:54.935Z,88992.00
2019-01-24T14:26:26.871Z,89920.00
2019-01-24T14:27:58.600Z,42720.00
2019-01-24T14:29:30.750Z,40288.00
2019-01-24T14:31:02.303Z,75680.00
2019-01-24T14:32:34.123Z,58976.00
2019-01-24T14:34:06.858Z,94464.00
2019-01-24T14:37:09.779Z,63968.00
2019-01-24T14:38:41.706Z,60480.00
2019-01-24T14:40:14.017Z,93568.00
2019-01-24T14:41:45.411Z,96128.00
2019-01-24T14:43:17.037Z,94944.00
2019-01-24T14:44:48.751Z,89536.00
2019-01-24T14:46:21.290Z,92352.00
2019-01-24T14:47:53.069Z,89408.00
2019-01-24T14:49:25.190Z,89152.00
2019-01-24T14:50:56.664Z,60832.00
2019-01-24T14:52:29.624Z,46560.00
2019-01-24T14:53:59.864Z,57376.00
2019-01-24T14:55:32.142Z,81632.00
2019-01-24T14:57:03.514Z,51584.00
2019-01-24T14:58:35.753Z,63616.00
2019-01-24T15:00:07.543Z,40416.00
2019-01-24T15:01:39.147Z,38496.00
2019-01-24T15:03:11.210Z,39072.00
2019-01-24T15:04:42.815Z,53056.00
2019-01-24T15:06:14.702Z,62944.00
2019-01-24T15:07:47.246Z,62912.00
2019-01-24T15:09:19.738Z,66144.00
2019-01-24T15:10:50.367Z,61440.00
2019-01-24T15:12:22.814Z,81344.00
2019-01-24T15:13:53.570Z,83552.00
2019-01-24T15:15:25.605Z,75616.00
2019-01-24T15:16:57.693Z,76832.00
2019-01-24T15:18:29.557Z,83968.00
2019-01-24T15:20:01.378Z,70144.00
2019-01-24T15:21:33.535Z,52384.00
2019-01-24T15:23:04.638Z,72640.00
2019-01-24T15:24:36.357Z,72928.00
2019-01-24T15:26:08.874Z,53024.00
2019-01-24T15:27:40.581Z,102816.00
2019-01-24T15:29:12.394Z,109312.00
2019-01-24T15:30:44.323Z,101120.00
2019-01-24T15:32:15.990Z,105536.00
2019-01-24T15:33:48.117Z,108096.00
2019-01-24T15:35:19.449Z,103648.00
2019-01-24T15:36:51.568Z,102688.00
2019-01-24T15:38:23.789Z,111008.00
2019-01-24T15:39:55.739Z,115104.00
2019-01-24T15:41:27.423Z,114144.00
2019-01-24T15:42:58.908Z,110208.00
2019-01-24T15:44:30.986Z,110656.00
2019-01-24T15:46:02.298Z,103968.00
2019-01-24T15:47:34.366Z,102240.00
2019-01-24T15:49:06.648Z,108672.00
2019-01-24T15:50:38.062Z,106304.00
2019-01-24T15:52:11.182Z,109824.00
2019-01-24T15:53:41.497Z,111328.00
2019-01-24T15:56:44.872Z,113888.00
2019-01-24T15:58:17.355Z,101408.00
2019-01-24T15:59:48.752Z,97664.00
2019-01-24T16:01:20.382Z,97664.00
2019-01-24T16:02:52.417Z,102464.00
2019-01-24T16:04:24.052Z,78144.00
2019-01-24T16:07:28.126Z,100000.00
2019-01-24T16:08:59.861Z,111968.00
2019-01-24T16:10:31.427Z,116416.00
2019-01-24T16:12:03.760Z,115712.00
2019-01-24T16:15:06.893Z,50944.00
2019-01-24T16:16:39.262Z,46784.00
2019-01-24T16:18:10.560Z,49472.00
2019-01-24T16:19:42.591Z,85696.00
2019-01-24T16:21:14.220Z,103040.00
2019-01-24T16:22:46.051Z,108128.00
2019-01-24T16:24:18.617Z,104384.00
2019-01-24T16:25:49.714Z,99904.00
2019-01-24T16:27:21.848Z,108480.00
2019-01-24T16:31:57.042Z,112640.00
2019-01-24T16:33:29.080Z,110848.00
2019-01-24T16:36:32.712Z,110368.00
2019-01-24T16:38:09.217Z,108320.00
2019-01-24T16:39:36.217Z,105472.00
2019-01-24T16:41:08.062Z,105056.00
2019-01-24T16:44:11.727Z,100640.00
2019-01-24T16:45:43.718Z,114720.00
2019-01-24T16:47:15.600Z,118880.00
2019-01-24T16:48:47.234Z,70208.00
2019-01-24T16:51:50.908Z,55488.00
2019-01-24T16:53:22.742Z,65600.00
2019-01-24T16:54:54.881Z,94464.00
2019-01-24T16:56:26.613Z,97312.00
2019-01-24T16:57:58.244Z,104192.00
2019-01-24T17:02:33.742Z,89760.00
2019-01-24T17:04:06.027Z,44384.00
2019-01-24T17:05:37.436Z,42176.00
2019-01-24T17:07:09.439Z,39840.00
2019-01-24T17:08:41.074Z,37344.00
2019-01-24T17:11:44.945Z,36224.00
2019-01-24T17:13:16.940Z,37056.00
2019-01-24T17:16:20.291Z,47904.00
2019-01-24T17:17:52.717Z,48992.00
2019-01-24T17:20:55.689Z,45472.00
2019-01-24T17:22:27.516Z,39648.00
2019-01-24T17:23:59.644Z,37472.00
2019-01-24T17:25:31.168Z,38048.00
2019-01-24T17:27:02.993Z,38016.00
2019-01-24T17:28:34.819Z,39840.00
2019-01-24T17:30:06.648Z,37760.00
2019-01-24T17:31:38.709Z,29184.00
2019-01-24T17:33:10.296Z,22688.00
2019-01-24T17:36:13.946Z,11428.00
2019-01-24T17:39:17.597Z,10660.00
2019-01-24T17:42:21.345Z,15672.00
2019-01-24T17:43:53.069Z,18944.00
2019-01-24T17:45:24.895Z,22592.00
2019-01-24T17:46:56.728Z,24288.00
2019-01-24T17:48:28.541Z,25280.00
2019-01-24T17:50:00.669Z,24736.00
2019-01-24T17:53:04.315Z,23552.00
2019-01-24T17:56:07.658Z,20800.00
2019-01-24T17:57:39.482Z,17856.00
2019-01-24T17:59:11.308Z,14796.00
2019-01-24T18:00:43.128Z,10204.00
2019-01-24T18:03:46.876Z,3784.00
2019-01-24T18:05:18.680Z,3252.00
2019-01-24T18:08:22.243Z,2860.00
2019-01-24T18:11:25.978Z,2764.00
2019-01-24T18:12:57.900Z,3328.00
2019-01-24T18:14:29.529Z,4448.00
2019-01-24T18:16:01.586Z,5240.00
2019-01-24T18:17:33.168Z,5404.00
2019-01-24T18:19:04.988Z,5216.00
2019-01-24T18:20:37.113Z,5280.00
2019-01-24T18:22:08.627Z,4900.00
2019-01-24T18:23:41.086Z,5440.00
2019-01-24T18:25:13.210Z,6164.00
2019-01-24T18:26:44.286Z,6452.00
2019-01-24T18:29:49.273Z,6384.00
2019-01-24T18:31:19.743Z,6744.00
2019-01-24T18:32:51.360Z,6988.00
2019-01-24T18:35:55.205Z,9588.00
2019-01-24T18:37:26.817Z,10664.00
2019-01-24T18:40:30.455Z,11696.00
2019-01-24T18:42:02.380Z,12056.00
2019-01-24T18:43:34.296Z,12256.00
2019-01-24T18:45:05.912Z,12704.00
2019-01-24T18:46:38.038Z,13876.00
2019-01-24T18:49:41.371Z,18208.00
2019-01-24T18:51:13.200Z,20288.00
2019-01-24T18:52:45.008Z,20576.00
2019-01-24T18:54:16.828Z,20064.00
2019-01-24T18:55:48.851Z,20832.00
2019-01-24T18:57:21.007Z,22304.00
2019-01-24T18:58:52.591Z,25056.00
2019-01-24T19:00:24.106Z,25152.00
2019-01-24T19:01:56.230Z,23104.00
2019-01-24T19:03:27.745Z,19520.00
2019-01-24T19:04:59.621Z,16352.00
2019-01-24T19:06:31.689Z,14276.00
2019-01-24T19:08:03.204Z,13460.00
2019-01-24T19:09:35.021Z,13528.00
2019-01-24T19:14:11.218Z,14140.00
2019-01-24T19:15:42.298Z,14560.00
2019-01-24T19:18:45.935Z,15232.00
2019-01-24T19:20:18.056Z,15452.00
2019-01-24T19:21:49.573Z,15420.00
2019-01-24T19:23:21.393Z,14784.00
2019-01-24T19:26:25.031Z,13116.00
2019-01-24T19:27:56.901Z,12484.00
2019-01-24T19:31:00.531Z,11536.00
2019-01-24T19:32:32.319Z,11516.00
2019-01-24T19:35:36.195Z,12668.00
2019-01-24T19:37:07.770Z,13528.00
2019-01-24T19:38:39.941Z,14464.00
2019-01-24T19:40:12.382Z,15524.00
2019-01-24T19:41:43.515Z,16572.00
2019-01-24T19:43:15.089Z,17664.00
2019-01-24T19:44:47.204Z,18720.00
2019-01-24T19:46:18.888Z,20128.00
2019-01-24T19:47:50.779Z,21696.00
2019-01-24T19:50:54.281Z,23520.00
2019-01-24T19:52:26.187Z,24352.00
2019-01-24T19:53:58.047Z,25120.00
2019-01-24T19:55:29.827Z,26144.00
2019-01-24T19:58:33.690Z,42208.00
2019-01-24T20:00:05.613Z,65472.00
2019-01-24T20:01:36.897Z,33408.00
2019-01-24T20:03:08.870Z,32800.00
2019-01-24T20:04:40.540Z,36736.00
2019-01-24T20:06:12.406Z,27488.00
2019-01-24T20:07:44.236Z,25216.00
2019-01-24T20:09:16.021Z,22880.00
2019-01-24T20:10:47.855Z,20832.00
2019-01-24T20:12:20.027Z,19136.00
2019-01-24T20:13:52.419Z,17920.00
2019-01-24T20:15:23.321Z,16916.00
2019-01-24T20:16:55.348Z,16104.00
2019-01-24T20:18:27.339Z,15464.00
2019-01-24T20:19:58.797Z,15408.00
2019-01-24T20:21:30.631Z,26912.00
2019-01-24T20:23:02.603Z,16664.00
2019-01-24T20:24:34.438Z,19296.00
2019-01-24T20:27:38.233Z,21952.00
2019-01-24T20:29:10.095Z,19808.00
2019-01-24T20:30:43.112Z,20288.00
2019-01-24T20:32:13.331Z,29504.00
2019-01-24T20:33:45.498Z,31072.00
2019-01-24T20:35:17.782Z,30336.00
2019-01-24T20:36:49.802Z,36288.00
2019-01-24T20:38:20.702Z,42016.00
2019-01-24T20:39:53.082Z,40800.00
2019-01-24T20:41:24.570Z,41504.00
2019-01-24T20:42:56.118Z,32352.00
2019-01-24T20:44:28.011Z,22816.00